Search for airport 
image banner adimage banner adimage banner ad
image banner ad

92CL - Moronis

Located in Meridian, United States

ICAO - 92CL, IATA -

Data provided by Airmate  

General information

Coordinates: N39°6'12" W121°51'1"
Elevation is 35 feet MSL.
Magnetic variation is 16° East
View others Airports in California

Operational data

Special qualification required
Current time UTC:
Current local time:
Weather at : KMYV - Yuba County ( 24 km )
METAR: KMYV 141153Z AUTO 15007KT 10SM CLR 17/14 A2997 RMK AO2 SLP151 T01720139 10228 20161 53008 $
View NOTAMs / SUP AIP / TFR affecting this airport [VIEW]
Communications frequencies: [VIEW]

Runways:

RWY identifierQFULength (ft)Width (ft)SurfaceLDA (ft)
16240050ASPH
34240050ASPH

Airport contact information

Address: Meridian United States

Satellite view of 92CL